createdAt,value
2019-02-02T00:08:32.013Z,27
2019-02-02T00:18:39.863Z,25
2019-02-02T00:28:46.514Z,27
2019-02-02T00:38:53.038Z,27
2019-02-02T00:49:00.408Z,40
2019-02-02T00:59:07.035Z,50
2019-02-02T01:09:13.857Z,48
2019-02-02T01:12:28.824Z,25
2019-02-02T01:22:35.558Z,19
2019-02-02T01:32:45.986Z,20
2019-02-02T01:42:51.173Z,20
2019-02-02T01:52:57.610Z,20
2019-02-02T02:03:06.341Z,22
2019-02-02T02:13:14.760Z,15
2019-02-02T02:23:22.350Z,16
2019-02-02T02:33:31.217Z,16
2019-02-02T02:43:37.785Z,15
2019-02-02T02:53:46.934Z,12
2019-02-02T03:03:54.112Z,13
2019-02-02T03:14:01.916Z,14
2019-02-02T03:24:10.657Z,13
2019-02-02T03:29:26.488Z,13
2019-02-02T03:39:33.651Z,15
2019-02-02T03:49:42.354Z,15
2019-02-02T03:59:49.694Z,15
2019-02-02T04:09:56.285Z,15
2019-02-02T04:20:03.830Z,13
2019-02-02T04:30:13.597Z,12
2019-02-02T04:40:21.411Z,10
2019-02-02T04:50:30.933Z,16
2019-02-02T05:00:37.592Z,16
2019-02-02T05:10:44.989Z,13
2019-02-02T05:20:50.672Z,13
2019-02-02T05:30:58.786Z,14
2019-02-02T05:41:04.884Z,13
2019-02-02T05:51:11.830Z,13
2019-02-02T06:00:30.373Z,13
2019-02-02T06:10:39.253Z,13
2019-02-02T06:20:47.109Z,13
2019-02-02T06:30:53.451Z,22
2019-02-02T06:41:02.175Z,16
2019-02-02T06:47:17.760Z,15
2019-02-02T06:57:22.921Z,15
2019-02-02T07:07:29.396Z,16
2019-02-02T07:17:35.819Z,15
2019-02-02T07:27:44.568Z,19
2019-02-02T07:31:02.972Z,16
2019-02-02T07:41:05.734Z,21
2019-02-02T07:51:13.352Z,14
2019-02-02T08:01:20.847Z,13
2019-02-02T08:11:29.252Z,17
2019-02-02T08:21:33.775Z,20
2019-02-02T08:31:40.879Z,15
2019-02-02T08:41:50.563Z,10
2019-02-02T08:51:54.992Z,9
2019-02-02T09:02:00.740Z,16
2019-02-02T09:07:19.055Z,18
2019-02-02T09:17:26.676Z,12
2019-02-02T09:23:42.776Z,13
2019-02-02T09:33:52.241Z,11
2019-02-02T09:44:01.601Z,12
2019-02-02T09:54:09.666Z,11
2019-02-02T10:04:20.160Z,5
2019-02-02T10:14:28.390Z,9
2019-02-02T10:19:47.514Z,11
2019-02-02T10:29:52.156Z,9
2019-02-02T10:40:02.566Z,8
2019-02-02T10:50:10.593Z,9
2019-02-02T11:00:20.967Z,10
2019-02-02T11:10:32.433Z,10
2019-02-02T11:20:41.552Z,9
2019-02-02T11:30:49.065Z,5
2019-02-02T11:40:54.877Z,9
2019-02-02T11:51:02.878Z,6
2019-02-02T12:01:09.556Z,4
2019-02-02T12:03:22.381Z,5
2019-02-02T12:13:28.580Z,8
2019-02-02T12:23:38.819Z,9
2019-02-02T12:24:48.980Z,9
2019-02-02T12:33:08.056Z,8
2019-02-02T12:43:16.558Z,10
2019-02-02T12:46:47.983Z,10
2019-02-02T12:56:50.327Z,8
2019-02-02T13:03:11.239Z,11
2019-02-02T13:13:17.629Z,7
2019-02-02T13:23:26.994Z,39
2019-02-02T13:26:42.973Z,22
2019-02-02T13:36:50.085Z,12
2019-02-02T13:46:56.011Z,6
2019-02-02T13:57:03.116Z,6
2019-02-02T14:02:18.097Z,8
2019-02-02T14:12:24.754Z,6
2019-02-02T14:22:31.303Z,6
2019-02-02T14:32:41.477Z,10
2019-02-02T14:33:54.078Z,17
2019-02-02T14:43:16.867Z,10
2019-02-02T14:44:40.911Z,19
2019-02-02T14:54:44.833Z,14
2019-02-02T15:04:04.638Z,15
2019-02-02T15:06:16.895Z,11
2019-02-02T15:16:40.578Z,12
2019-02-02T15:26:45.258Z,19
2019-02-02T15:34:19.582Z,30
2019-02-02T15:41:52.207Z,40
2019-02-02T15:42:26.303Z,37
2019-02-02T15:52:30.284Z,42
2019-02-02T16:02:35.710Z,24
2019-02-02T16:12:46.098Z,25
2019-02-02T16:22:51.586Z,39
2019-02-02T16:29:01.162Z,29
2019-02-02T16:30:11.934Z,26
2019-02-02T16:40:16.793Z,29
2019-02-02T16:50:26.077Z,48
2019-02-02T17:00:37.472Z,30
2019-02-02T17:04:52.074Z,30
2019-02-02T17:15:02.702Z,28
2019-02-02T17:19:34.571Z,33
2019-02-02T17:29:40.498Z,36
2019-02-02T17:35:00.385Z,39
2019-02-02T17:45:04.504Z,26
2019-02-02T17:55:10.809Z,24
2019-02-02T18:05:16.963Z,29
2019-02-02T18:15:25.064Z,27
2019-02-02T18:25:31.125Z,40
2019-02-02T18:32:48.687Z,38
2019-02-02T18:42:54.438Z,36
2019-02-02T18:53:02.007Z,35
2019-02-02T19:03:10.456Z,33
2019-02-02T19:13:16.039Z,35
2019-02-02T19:23:25.874Z,28
2019-02-02T19:33:28.879Z,34
2019-02-02T19:43:35.094Z,30
2019-02-02T19:47:50.863Z,30
2019-02-02T19:57:57.596Z,32
2019-02-02T20:08:06.107Z,28
2019-02-02T20:18:12.749Z,28
2019-02-02T20:28:22.519Z,31
2019-02-02T20:38:29.169Z,34
2019-02-02T20:48:38.575Z,32
2019-02-02T20:58:46.126Z,31
2019-02-02T21:08:54.501Z,28
2019-02-02T21:19:01.797Z,24
2019-02-02T21:29:23.951Z,25
2019-02-02T21:36:38.605Z,26
2019-02-02T21:46:45.880Z,22
2019-02-02T21:56:52.911Z,21
2019-02-02T22:07:00.817Z,22
2019-02-02T22:17:09.219Z,23
2019-02-02T22:27:17.149Z,24
2019-02-02T22:37:24.470Z,21
2019-02-02T22:47:32.382Z,22
2019-02-02T22:57:42.183Z,22
2019-02-02T23:07:52.532Z,18
2019-02-02T23:17:58.974Z,22
2019-02-02T23:28:05.599Z,20
2019-02-02T23:37:29.301Z,24
2019-02-02T23:47:32.087Z,21
2019-02-02T23:57:39.909Z,20
